Edwards Air Force Base Edwards US
ICAO: KEDW
IATA: EDW
Category: Large
Scheduled Services: No

Elevation: 2312 ft
TransAlt. 18000 ft.

Airport Communications:
SPORT APP/DEP:132.75
ATIS:26.99
GND:121.8
NASA FLT OPS:135.825
PMSV METRO:34.24
COMD POST:30.4
PTD:37.22
TWR:120.7

KEDW Zoom In..

Runways:

(A) RW 04L length 12000 ft width 200 ft
---- / hdg 43

(B) RW 04R length 15024 ft width 300 ft
---- / hdg 43

(C) RW 22L length 15024 ft width 300 ft
ILS 110.10 / hdg 223

(D) RW 22R length 12000 ft width 200 ft
---- / hdg 223

Location; KEDW
Day. 22 / Time. 01.58 Zulu
* Altimeter: 29.76
* Temperature: 19° c. 66.2°f.
* Wind from: 230° Speed 20 kn with Gusts up to 24 kn.
Dewpoint: 07° c.
Visibility: 50 Statute Miles.
Clouds: Few 5000 ft.
Clouds: Few 2000 ft.
Clouds: Few 3000 ft.

KEDW 220158Z 23020G24KT 50SM FEW050 FEW200 FEW300 19/07 A2976 RMK AO2A PK WND 23026/42 SLP064 T01870072


Wind From 230°
Speed 20 kn.

 
 
jpsmedia.com for Web Design SOUNDCLOUD worldairports.se 2018   terms of use